Norwood, Canada
Current Conditions -  °F | °C
As of 10:00 AM on Friday 24 Oct 2014 (Local Time) from CYPQ Reporting Station
Clear Clear  
Wind Chill: 45°   Ceiling: Unl
Heat Index: 48°   Visibility: 9mi
Dew Point: 39°   Wind: 8mph
Humidity: 71%   Direction: 320°NW
Pressure: 30"   Gusts: NA
Location:  44.38°N, 77.98°W
Report Text: CYPQ 241400Z AUTO 32007KT 9SM CLR 09/04 A3000 RMK SLP162
Loading
Personal Weather Stations






























Interactive Weather Map
Tropical Storm Tracking
New forecast layout! Learn more

10-Day Weather Forecast

Advertisements
Track Severe Weather on mobile